sensor_id;sensor_type;location;lat;lon;timestamp;pressure;altitude;pressure_sealevel;temperature;humidity
55079;BME280;55187;49.496;6.010;2022-12-18T00:01:03;98374.00;;;-10.20;100.00
55079;BME280;55187;49.496;6.010;2022-12-18T00:03:35;98393.31;;;-10.08;100.00
55079;BME280;55187;49.496;6.010;2022-12-18T00:06:02;98376.03;;;-10.00;100.00
55079;BME280;55187;49.496;6.010;2022-12-18T00:08:28;98389.56;;;-10.27;100.00
55079;BME280;55187;49.496;6.010;2022-12-18T00:10:55;98379.53;;;-10.02;100.00
55079;BME280;55187;49.496;6.010;2022-12-18T00:13:21;98374.94;;;-10.24;100.00
55079;BME280;55187;49.496;6.010;2022-12-18T00:15:47;98376.50;;;-10.17;100.00
55079;BME280;55187;49.496;6.010;2022-12-18T00:18:14;98370.75;;;-10.26;100.00
55079;BME280;55187;49.496;6.010;2022-12-18T00:20:40;98379.44;;;-10.30;100.00
55079;BME280;55187;49.496;6.010;2022-12-18T00:23:07;98376.53;;;-10.51;100.00
55079;BME280;55187;49.496;6.010;2022-12-18T00:25:34;98389.47;;;-10.59;100.00
55079;BME280;55187;49.496;6.010;2022-12-18T00:28:02;98374.81;;;-10.52;100.00
55079;BME280;55187;49.496;6.010;2022-12-18T00:30:29;98374.47;;;-10.37;100.00
55079;BME280;55187;49.496;6.010;2022-12-18T00:32:55;98378.09;;;-10.47;100.00
55079;BME280;55187;49.496;6.010;2022-12-18T00:35:25;98374.31;;;-10.66;100.00
55079;BME280;55187;49.496;6.010;2022-12-18T00:37:52;98374.84;;;-10.53;100.00
55079;BME280;55187;49.496;6.010;2022-12-18T00:40:18;98365.41;;;-10.50;100.00
55079;BME280;55187;49.496;6.010;2022-12-18T00:42:45;98362.75;;;-10.47;100.00
55079;BME280;55187;49.496;6.010;2022-12-18T00:45:25;98368.75;;;-10.46;100.00
55079;BME280;55187;49.496;6.010;2022-12-18T00:47:52;98374.84;;;-10.53;100.00
55079;BME280;55187;49.496;6.010;2022-12-18T00:50:18;98365.94;;;-10.71;100.00
55079;BME280;55187;49.496;6.010;2022-12-18T00:52:45;98366.25;;;-10.85;100.00
55079;BME280;55187;49.496;6.010;2022-12-18T00:55:12;98369.22;;;-11.04;100.00
55079;BME280;55187;49.496;6.010;2022-12-18T00:57:38;98354.91;;;-11.11;100.00
55079;BME280;55187;49.496;6.010;2022-12-18T01:00:06;98362.88;;;-11.25;100.00
55079;BME280;55187;49.496;6.010;2022-12-18T01:02:34;98355.25;;;-11.26;100.00
55079;BME280;55187;49.496;6.010;2022-12-18T01:05:02;98362.78;;;-11.20;100.00
55079;BME280;55187;49.496;6.010;2022-12-18T01:07:28;98364.66;;;-11.28;100.00
55079;BME280;55187;49.496;6.010;2022-12-18T01:09:55;98357.00;;;-11.30;100.00
55079;BME280;55187;49.496;6.010;2022-12-18T01:12:21;98345.78;;;-11.23;100.00
55079;BME280;55187;49.496;6.010;2022-12-18T01:14:50;98350.22;;;-11.31;100.00
55079;BME280;55187;49.496;6.010;2022-12-18T01:17:16;98354.34;;;-11.24;100.00
55079;BME280;55187;49.496;6.010;2022-12-18T01:19:43;98361.59;;;-11.05;100.00
55079;BME280;55187;49.496;6.010;2022-12-18T01:22:10;98363.25;;;-11.04;100.00
55079;BME280;55187;49.496;6.010;2022-12-18T01:24:37;98348.88;;;-11.08;100.00
55079;BME280;55187;49.496;6.010;2022-12-18T01:27:04;98343.31;;;-11.26;100.00
55079;BME280;55187;49.496;6.010;2022-12-18T01:29:30;98341.53;;;-11.22;100.00
55079;BME280;55187;49.496;6.010;2022-12-18T01:31:57;98352.66;;;-11.25;100.00
55079;BME280;55187;49.496;6.010;2022-12-18T01:34:26;98349.78;;;-11.50;100.00
55079;BME280;55187;49.496;6.010;2022-12-18T01:36:52;98344.72;;;-11.53;100.00
55079;BME280;55187;49.496;6.010;2022-12-18T01:39:19;98362.56;;;-11.51;100.00
55079;BME280;55187;49.496;6.010;2022-12-18T01:41:46;98360.13;;;-11.56;100.00
55079;BME280;55187;49.496;6.010;2022-12-18T01:49:59;98364.84;;;-11.37;100.00
55079;BME280;55187;49.496;6.010;2022-12-18T01:52:30;98360.94;;;-11.55;100.00
55079;BME280;55187;49.496;6.010;2022-12-18T01:54:58;98354.00;;;-11.49;100.00
55079;BME280;55187;49.496;6.010;2022-12-18T01:57:27;98371.78;;;-11.44;100.00
55079;BME280;55187;49.496;6.010;2022-12-18T01:59:59;98357.59;;;-11.57;100.00
55079;BME280;55187;49.496;6.010;2022-12-18T02:02:28;98340.13;;;-11.77;100.00
55079;BME280;55187;49.496;6.010;2022-12-18T02:04:55;98352.56;;;-11.62;100.00
55079;BME280;55187;49.496;6.010;2022-12-18T02:07:38;98365.25;;;-11.57;100.00
55079;BME280;55187;49.496;6.010;2022-12-18T02:10:27;98355.91;;;-11.57;100.00
55079;BME280;55187;49.496;6.010;2022-12-18T02:16:10;98350.13;;;-11.67;100.00
55079;BME280;55187;49.496;6.010;2022-12-18T02:18:48;98338.34;;;-11.74;100.00
55079;BME280;55187;49.496;6.010;2022-12-18T02:21:30;98347.88;;;-11.82;100.00
55079;BME280;55187;49.496;6.010;2022-12-18T02:24:24;98352.53;;;-11.59;100.00
55079;BME280;55187;49.496;6.010;2022-12-18T02:26:59;98338.41;;;-11.75;100.00
55079;BME280;55187;49.496;6.010;2022-12-18T02:29:35;98353.00;;;-11.82;100.00
55079;BME280;55187;49.496;6.010;2022-12-18T02:32:08;98346.34;;;-11.89;100.00
55079;BME280;55187;49.496;6.010;2022-12-18T02:34:39;98342.38;;;-11.62;100.00
55079;BME280;55187;49.496;6.010;2022-12-18T02:37:12;98352.56;;;-11.61;100.00
55079;BME280;55187;49.496;6.010;2022-12-18T02:39:43;98341.47;;;-11.59;100.00
55079;BME280;55187;49.496;6.010;2022-12-18T02:42:13;98347.97;;;-11.45;100.00
55079;BME280;55187;49.496;6.010;2022-12-18T02:44:45;98345.63;;;-11.55;100.00
55079;BME280;55187;49.496;6.010;2022-12-18T02:48:10;98357.91;;;-11.32;100.00
55079;BME280;55187;49.496;6.010;2022-12-18T02:50:44;98360.69;;;-11.04;100.00
55079;BME280;55187;49.496;6.010;2022-12-18T02:53:27;98364.56;;;-10.50;100.00
55079;BME280;55187;49.496;6.010;2022-12-18T02:56:07;98367.13;;;-10.50;100.00
55079;BME280;55187;49.496;6.010;2022-12-18T02:58:54;98349.84;;;-10.77;100.00
55079;BME280;55187;49.496;6.010;2022-12-18T03:01:43;98367.72;;;-10.75;100.00
55079;BME280;55187;49.496;6.010;2022-12-18T03:04:22;98363.78;;;-10.54;100.00
55079;BME280;55187;49.496;6.010;2022-12-18T03:07:02;98355.53;;;-10.65;100.00
55079;BME280;55187;49.496;6.010;2022-12-18T03:09:35;98358.63;;;-10.87;100.00
55079;BME280;55187;49.496;6.010;2022-12-18T03:12:13;98365.56;;;-10.93;100.00
55079;BME280;55187;49.496;6.010;2022-12-18T03:17:42;98370.72;;;-10.95;100.00
55079;BME280;55187;49.496;6.010;2022-12-18T03:20:14;98358.00;;;-10.98;100.00
55079;BME280;55187;49.496;6.010;2022-12-18T03:22:44;98355.78;;;-11.12;100.00
55079;BME280;55187;49.496;6.010;2022-12-18T03:25:16;98347.19;;;-11.09;100.00
55079;BME280;55187;49.496;6.010;2022-12-18T03:27:47;98348.41;;;-11.26;100.00
55079;BME280;55187;49.496;6.010;2022-12-18T03:30:17;98339.09;;;-11.27;100.00
55079;BME280;55187;49.496;6.010;2022-12-18T03:32:54;98342.53;;;-11.29;100.00
55079;BME280;55187;49.496;6.010;2022-12-18T03:35:27;98343.00;;;-11.12;100.00
55079;BME280;55187;49.496;6.010;2022-12-18T03:37:56;98350.00;;;-11.20;100.00
55079;BME280;55187;49.496;6.010;2022-12-18T03:40:31;98346.94;;;-11.36;100.00
55079;BME280;55187;49.496;6.010;2022-12-18T03:45:53;98336.94;;;-11.45;100.00
55079;BME280;55187;49.496;6.010;2022-12-18T03:48:32;98340.25;;;-11.42;100.00
55079;BME280;55187;49.496;6.010;2022-12-18T03:51:14;98343.28;;;-11.24;100.00
55079;BME280;55187;49.496;6.010;2022-12-18T03:53:58;98352.50;;;-11.19;100.00
55079;BME280;55187;49.496;6.010;2022-12-18T03:56:35;98356.25;;;-11.33;100.00
55079;BME280;55187;49.496;6.010;2022-12-18T03:59:04;98350.97;;;-11.26;100.00
55079;BME280;55187;49.496;6.010;2022-12-18T04:01:34;98354.22;;;-11.17;100.00
55079;BME280;55187;49.496;6.010;2022-12-18T04:04:03;98330.72;;;-10.98;100.00
55079;BME280;55187;49.496;6.010;2022-12-18T04:06:35;98337.34;;;-11.25;100.00
55079;BME280;55187;49.496;6.010;2022-12-18T04:09:02;98324.34;;;-11.15;100.00
55079;BME280;55187;49.496;6.010;2022-12-18T04:11:32;98321.81;;;-11.15;100.00
55079;BME280;55187;49.496;6.010;2022-12-18T04:13:59;98320.22;;;-11.23;100.00
55079;BME280;55187;49.496;6.010;2022-12-18T04:16:26;98315.78;;;-11.13;100.00
55079;BME280;55187;49.496;6.010;2022-12-18T04:18:56;98319.56;;;-11.29;100.00
55079;BME280;55187;49.496;6.010;2022-12-18T04:21:24;98312.69;;;-10.90;100.00
55079;BME280;55187;49.496;6.010;2022-12-18T04:23:52;98313.16;;;-11.11;100.00
55079;BME280;55187;49.496;6.010;2022-12-18T04:26:21;98308.13;;;-11.14;100.00
55079;BME280;55187;49.496;6.010;2022-12-18T04:28:59;98296.50;;;-11.28;100.00
55079;BME280;55187;49.496;6.010;2022-12-18T04:31:27;98306.47;;;-11.15;100.00
55079;BME280;55187;49.496;6.010;2022-12-18T04:33:53;98311.03;;;-11.30;100.00
55079;BME280;55187;49.496;6.010;2022-12-18T04:36:20;98318.63;;;-10.89;100.00
55079;BME280;55187;49.496;6.010;2022-12-18T04:38:47;98319.50;;;-10.90;100.00
55079;BME280;55187;49.496;6.010;2022-12-18T04:41:16;98311.09;;;-10.60;100.00
55079;BME280;55187;49.496;6.010;2022-12-18T04:43:44;98312.16;;;-10.68;100.00
55079;BME280;55187;49.496;6.010;2022-12-18T04:46:11;98314.59;;;-10.29;100.00
55079;BME280;55187;49.496;6.010;2022-12-18T04:48:38;98312.75;;;-10.26;100.00
55079;BME280;55187;49.496;6.010;2022-12-18T04:51:05;98317.50;;;-10.43;100.00
55079;BME280;55187;49.496;6.010;2022-12-18T04:53:32;98309.94;;;-10.48;100.00
55079;BME280;55187;49.496;6.010;2022-12-18T04:56:10;98323.44;;;-10.43;100.00
55079;BME280;55187;49.496;6.010;2022-12-18T04:58:38;98320.09;;;-10.45;100.00
55079;BME280;55187;49.496;6.010;2022-12-18T05:01:05;98316.25;;;-10.28;100.00
55079;BME280;55187;49.496;6.010;2022-12-18T05:03:34;98318.91;;;-10.31;100.00
55079;BME280;55187;49.496;6.010;2022-12-18T05:06:01;98324.53;;;-10.20;100.00
55079;BME280;55187;49.496;6.010;2022-12-18T05:08:28;98316.38;;;-10.02;100.00
55079;BME280;55187;49.496;6.010;2022-12-18T05:11:05;98334.28;;;-10.02;100.00
55079;BME280;55187;49.496;6.010;2022-12-18T05:13:32;98329.88;;;-9.65;100.00
55079;BME280;55187;49.496;6.010;2022-12-18T05:15:59;98334.34;;;-9.72;100.00
55079;BME280;55187;49.496;6.010;2022-12-18T05:18:26;98336.00;;;-9.71;100.00
55079;BME280;55187;49.496;6.010;2022-12-18T05:20:53;98331.34;;;-9.57;100.00
55079;BME280;55187;49.496;6.010;2022-12-18T05:23:20;98330.00;;;-9.70;100.00
55079;BME280;55187;49.496;6.010;2022-12-18T05:25:52;98335.28;;;-9.76;100.00
55079;BME280;55187;49.496;6.010;2022-12-18T05:28:19;98332.09;;;-9.53;100.00
55079;BME280;55187;49.496;6.010;2022-12-18T05:30:49;98333.50;;;-9.73;100.00
55079;BME280;55187;49.496;6.010;2022-12-18T05:33:20;98335.41;;;-9.81;100.00
55079;BME280;55187;49.496;6.010;2022-12-18T05:35:51;98340.88;;;-9.93;100.00
55079;BME280;55187;49.496;6.010;2022-12-18T05:38:19;98337.94;;;-10.10;100.00
55079;BME280;55187;49.496;6.010;2022-12-18T05:40:48;98332.06;;;-10.14;100.00
55079;BME280;55187;49.496;6.010;2022-12-18T05:43:14;98346.81;;;-9.91;100.00
55079;BME280;55187;49.496;6.010;2022-12-18T05:45:41;98337.13;;;-9.80;100.00
55079;BME280;55187;49.496;6.010;2022-12-18T05:48:08;98337.66;;;-10.00;100.00
55079;BME280;55187;49.496;6.010;2022-12-18T05:50:40;98344.75;;;-10.09;100.00
55079;BME280;55187;49.496;6.010;2022-12-18T05:53:07;98346.38;;;-10.07;100.00
55079;BME280;55187;49.496;6.010;2022-12-18T05:55:34;98346.63;;;-9.85;100.00
55079;BME280;55187;49.496;6.010;2022-12-18T05:58:05;98337.69;;;-9.70;100.00
55079;BME280;55187;49.496;6.010;2022-12-18T06:00:33;98342.19;;;-9.78;100.00
55079;BME280;55187;49.496;6.010;2022-12-18T06:03:01;98354.09;;;-10.08;100.00
55079;BME280;55187;49.496;6.010;2022-12-18T06:05:28;98352.97;;;-9.98;100.00
55079;BME280;55187;49.496;6.010;2022-12-18T06:07:54;98345.34;;;-10.00;100.00
55079;BME280;55187;49.496;6.010;2022-12-18T06:10:21;98355.16;;;-9.84;100.00
55079;BME280;55187;49.496;6.010;2022-12-18T06:12:47;98371.25;;;-9.79;100.00
55079;BME280;55187;49.496;6.010;2022-12-18T06:15:13;98379.88;;;-9.83;100.00
55079;BME280;55187;49.496;6.010;2022-12-18T06:17:40;98380.56;;;-9.77;100.00
55079;BME280;55187;49.496;6.010;2022-12-18T06:20:06;98390.13;;;-9.83;100.00
55079;BME280;55187;49.496;6.010;2022-12-18T06:22:33;98395.25;;;-9.83;100.00
55079;BME280;55187;49.496;6.010;2022-12-18T06:25:01;98391.16;;;-9.90;100.00
55079;BME280;55187;49.496;6.010;2022-12-18T06:27:27;98391.50;;;-9.72;100.00
55079;BME280;55187;49.496;6.010;2022-12-18T06:29:53;98390.75;;;-9.75;100.00
55079;BME280;55187;49.496;6.010;2022-12-18T06:32:20;98393.91;;;-9.65;100.00
55079;BME280;55187;49.496;6.010;2022-12-18T06:34:47;98401.78;;;-9.73;100.00
55079;BME280;55187;49.496;6.010;2022-12-18T06:37:13;98401.03;;;-9.77;100.00
55079;BME280;55187;49.496;6.010;2022-12-18T06:39:39;98405.88;;;-9.66;100.00
55079;BME280;55187;49.496;6.010;2022-12-18T06:42:06;98401.09;;;-9.47;100.00
55079;BME280;55187;49.496;6.010;2022-12-18T06:44:32;98410.22;;;-9.69;100.00
55079;BME280;55187;49.496;6.010;2022-12-18T06:46:59;98408.34;;;-9.63;100.00
55079;BME280;55187;49.496;6.010;2022-12-18T06:49:25;98404.66;;;-9.53;100.00
55079;BME280;55187;49.496;6.010;2022-12-18T06:51:51;98398.53;;;-9.47;100.00
55079;BME280;55187;49.496;6.010;2022-12-18T06:54:18;98409.63;;;-9.48;100.00
55079;BME280;55187;49.496;6.010;2022-12-18T06:56:45;98399.38;;;-9.48;100.00
55079;BME280;55187;49.496;6.010;2022-12-18T06:59:13;98411.34;;;-9.47;100.00
55079;BME280;55187;49.496;6.010;2022-12-18T07:01:41;98395.91;;;-9.45;100.00
55079;BME280;55187;49.496;6.010;2022-12-18T07:04:08;98397.72;;;-9.49;100.00
55079;BME280;55187;49.496;6.010;2022-12-18T07:06:34;98403.69;;;-9.48;100.00
55079;BME280;55187;49.496;6.010;2022-12-18T07:09:00;98407.50;;;-9.32;100.00
55079;BME280;55187;49.496;6.010;2022-12-18T07:11:27;98409.03;;;-9.56;100.00
55079;BME280;55187;49.496;6.010;2022-12-18T07:13:53;98392.88;;;-9.60;100.00
55079;BME280;55187;49.496;6.010;2022-12-18T07:16:21;98396.22;;;-9.56;100.00
55079;BME280;55187;49.496;6.010;2022-12-18T07:18:47;98390.91;;;-9.50;100.00
55079;BME280;55187;49.496;6.010;2022-12-18T07:21:16;98390.44;;;-9.64;100.00
55079;BME280;55187;49.496;6.010;2022-12-18T07:23:43;98389.88;;;-9.74;100.00
55079;BME280;55187;49.496;6.010;2022-12-18T07:26:12;98383.69;;;-9.67;100.00
55079;BME280;55187;49.496;6.010;2022-12-18T07:28:40;98392.41;;;-9.73;100.00
55079;BME280;55187;49.496;6.010;2022-12-18T07:31:09;98390.94;;;-9.83;100.00
55079;BME280;55187;49.496;6.010;2022-12-18T07:33:36;98381.75;;;-9.90;100.00
55079;BME280;55187;49.496;6.010;2022-12-18T07:36:04;98377.53;;;-9.91;100.00
55079;BME280;55187;49.496;6.010;2022-12-18T07:38:31;98385.09;;;-9.86;100.00
55079;BME280;55187;49.496;6.010;2022-12-18T07:41:06;98380.34;;;-9.69;100.00
55079;BME280;55187;49.496;6.010;2022-12-18T07:43:34;98396.59;;;-9.70;100.00
55079;BME280;55187;49.496;6.010;2022-12-18T07:46:00;98392.28;;;-9.68;100.00
55079;BME280;55187;49.496;6.010;2022-12-18T07:48:28;98389.72;;;-9.68;100.00
55079;BME280;55187;49.496;6.010;2022-12-18T07:50:58;98382.84;;;-9.66;100.00
55079;BME280;55187;49.496;6.010;2022-12-18T07:53:25;98370.72;;;-9.61;100.00
55079;BME280;55187;49.496;6.010;2022-12-18T07:55:57;98382.59;;;-9.58;100.00
55079;BME280;55187;49.496;6.010;2022-12-18T07:58:23;98372.94;;;-9.48;100.00
55079;BME280;55187;49.496;6.010;2022-12-18T08:00:50;98382.50;;;-9.55;100.00
55079;BME280;55187;49.496;6.010;2022-12-18T08:03:16;98379.13;;;-9.56;100.00
55079;BME280;55187;49.496;6.010;2022-12-18T08:05:43;98382.72;;;-9.61;100.00
55079;BME280;55187;49.496;6.010;2022-12-18T08:08:09;98384.94;;;-9.51;100.00
55079;BME280;55187;49.496;6.010;2022-12-18T08:10:37;98372.66;;;-9.38;100.00
55079;BME280;55187;49.496;6.010;2022-12-18T08:13:04;98395.50;;;-9.32;100.00
55079;BME280;55187;49.496;6.010;2022-12-18T08:15:30;98389.00;;;-9.43;100.00
55079;BME280;55187;49.496;6.010;2022-12-18T08:17:57;98384.91;;;-9.49;100.00
55079;BME280;55187;49.496;6.010;2022-12-18T08:20:23;98395.31;;;-9.55;100.00
55079;BME280;55187;49.496;6.010;2022-12-18T08:22:49;98399.72;;;-9.59;100.00
55079;BME280;55187;49.496;6.010;2022-12-18T08:25:16;98406.13;;;-9.44;100.00
55079;BME280;55187;49.496;6.010;2022-12-18T08:27:43;98413.13;;;-9.51;100.00
55079;BME280;55187;49.496;6.010;2022-12-18T08:30:10;98416.66;;;-9.55;100.00
55079;BME280;55187;49.496;6.010;2022-12-18T08:32:36;98416.66;;;-9.55;100.00
55079;BME280;55187;49.496;6.010;2022-12-18T08:35:03;98409.56;;;-9.45;100.00
55079;BME280;55187;49.496;6.010;2022-12-18T08:37:29;98401.56;;;-9.34;100.00
55079;BME280;55187;49.496;6.010;2022-12-18T08:39:56;98412.28;;;-9.20;100.00
55079;BME280;55187;49.496;6.010;2022-12-18T08:42:22;98417.88;;;-9.07;100.00
55079;BME280;55187;49.496;6.010;2022-12-18T08:45:01;98418.09;;;-9.44;100.00
55079;BME280;55187;49.496;6.010;2022-12-18T08:47:28;98420.00;;;-9.53;100.00
55079;BME280;55187;49.496;6.010;2022-12-18T08:49:54;98414.56;;;-9.72;100.00
55079;BME280;55187;49.496;6.010;2022-12-18T08:52:21;98413.13;;;-9.82;100.00
55079;BME280;55187;49.496;6.010;2022-12-18T08:54:47;98412.56;;;-9.62;100.00
55079;BME280;55187;49.496;6.010;2022-12-18T08:57:14;98407.66;;;-9.68;100.00
55079;BME280;55187;49.496;6.010;2022-12-18T08:59:40;98425.06;;;-9.82;100.00
55079;BME280;55187;49.496;6.010;2022-12-18T09:02:09;98422.03;;;-9.64;100.00
55079;BME280;55187;49.496;6.010;2022-12-18T09:04:36;98419.91;;;-9.81;100.00
55079;BME280;55187;49.496;6.010;2022-12-18T09:07:02;98422.31;;;-9.43;100.00
55079;BME280;55187;49.496;6.010;2022-12-18T09:09:29;98419.44;;;-9.62;100.00
55079;BME280;55187;49.496;6.010;2022-12-18T09:11:55;98403.47;;;-9.41;100.00
55079;BME280;55187;49.496;6.010;2022-12-18T09:14:21;98391.22;;;-9.61;100.00
55079;BME280;55187;49.496;6.010;2022-12-18T09:16:48;98400.16;;;-9.76;100.00
55079;BME280;55187;49.496;6.010;2022-12-18T09:19:14;98396.38;;;-9.62;100.00
55079;BME280;55187;49.496;6.010;2022-12-18T09:21:40;98385.75;;;-9.48;100.00
55079;BME280;55187;49.496;6.010;2022-12-18T09:24:14;98390.44;;;-9.64;100.00
55079;BME280;55187;49.496;6.010;2022-12-18T09:26:41;98387.69;;;-9.57;100.00
55079;BME280;55187;49.496;6.010;2022-12-18T09:29:07;98390.00;;;-9.47;100.00
55079;BME280;55187;49.496;6.010;2022-12-18T09:31:35;98397.16;;;-9.29;100.00
55079;BME280;55187;49.496;6.010;2022-12-18T09:34:02;98400.03;;;-9.40;100.00
55079;BME280;55187;49.496;6.010;2022-12-18T09:36:28;98403.59;;;-9.16;100.00
55079;BME280;55187;49.496;6.010;2022-12-18T09:38:55;98393.63;;;-9.25;100.00
55079;BME280;55187;49.496;6.010;2022-12-18T09:41:36;98385.63;;;-9.14;100.00
55079;BME280;55187;49.496;6.010;2022-12-18T09:44:24;98381.44;;;-9.17;100.00
55079;BME280;55187;49.496;6.010;2022-12-18T09:49:39;98388.59;;;-9.00;100.00
55079;BME280;55187;49.496;6.010;2022-12-18T09:54:56;98383.56;;;-9.03;100.00
55079;BME280;55187;49.496;6.010;2022-12-18T09:57:24;98390.47;;;-9.05;100.00
55079;BME280;55187;49.496;6.010;2022-12-18T09:59:58;98394.22;;;-8.60;100.00
55079;BME280;55187;49.496;6.010;2022-12-18T10:02:37;98384.63;;;-8.80;100.00
55079;BME280;55187;49.496;6.010;2022-12-18T10:05:07;98378.53;;;-8.78;100.00
55079;BME280;55187;49.496;6.010;2022-12-18T10:13:22;98369.84;;;-8.46;100.00
55079;BME280;55187;49.496;6.010;2022-12-18T10:16:16;98370.09;;;-8.53;100.00
55079;BME280;55187;49.496;6.010;2022-12-18T10:19:09;98367.53;;;-8.53;100.00
55079;BME280;55187;49.496;6.010;2022-12-18T10:21:48;98372.94;;;-8.62;100.00
55079;BME280;55187;49.496;6.010;2022-12-18T10:24:39;98361.16;;;-8.70;100.00
55079;BME280;55187;49.496;6.010;2022-12-18T10:27:18;98356.06;;;-8.43;100.00
55079;BME280;55187;49.496;6.010;2022-12-18T10:29:46;98346.78;;;-8.47;100.00
55079;BME280;55187;49.496;6.010;2022-12-18T10:32:17;98357.44;;;-8.59;100.00
55079;BME280;55187;49.496;6.010;2022-12-18T10:34:49;98356.41;;;-8.54;100.00
55079;BME280;55187;49.496;6.010;2022-12-18T10:37:18;98359.03;;;-8.55;100.00
55079;BME280;55187;49.496;6.010;2022-12-18T10:40:08;98349.66;;;-8.31;100.00
55079;BME280;55187;49.496;6.010;2022-12-18T10:42:34;98347.75;;;-8.01;100.00
55079;BME280;55187;49.496;6.010;2022-12-18T10:45:13;98335.50;;;-8.18;100.00
55079;BME280;55187;49.496;6.010;2022-12-18T10:47:45;98335.88;;;-8.29;100.00
55079;BME280;55187;49.496;6.010;2022-12-18T10:50:25;98333.09;;;-8.23;100.00
55079;BME280;55187;49.496;6.010;2022-12-18T10:52:59;98332.66;;;-8.10;100.00
55079;BME280;55187;49.496;6.010;2022-12-18T10:55:34;98324.59;;;-8.25;100.00
55079;BME280;55187;49.496;6.010;2022-12-18T10:58:24;98317.22;;;-8.09;100.00
55079;BME280;55187;49.496;6.010;2022-12-18T11:03:44;98310.66;;;-8.41;100.00
55079;BME280;55187;49.496;6.010;2022-12-18T11:06:14;98314.06;;;-7.92;100.00
55079;BME280;55187;49.496;6.010;2022-12-18T11:08:43;98323.50;;;-7.69;100.00
55079;BME280;55187;49.496;6.010;2022-12-18T11:11:21;98329.25;;;-7.62;100.00
55079;BME280;55187;49.496;6.010;2022-12-18T11:13:57;98325.41;;;-7.74;100.00
55079;BME280;55187;49.496;6.010;2022-12-18T11:16:26;98324.34;;;-7.45;100.00
55079;BME280;55187;49.496;6.010;2022-12-18T11:18:54;98320.09;;;-7.69;100.00
55079;BME280;55187;49.496;6.010;2022-12-18T11:21:21;98324.94;;;-7.85;100.00
55079;BME280;55187;49.496;6.010;2022-12-18T11:23:52;98330.09;;;-8.10;100.00
55079;BME280;55187;49.496;6.010;2022-12-18T11:26:20;98332.47;;;-8.04;100.00
55079;BME280;55187;49.496;6.010;2022-12-18T11:28:52;98322.41;;;-8.10;100.00
55079;BME280;55187;49.496;6.010;2022-12-18T11:31:33;98311.66;;;-7.96;100.00
55079;BME280;55187;49.496;6.010;2022-12-18T11:36:58;98317.41;;;-7.90;100.00
55079;BME280;55187;49.496;6.010;2022-12-18T11:39:35;98320.22;;;-7.72;100.00
55079;BME280;55187;49.496;6.010;2022-12-18T11:42:09;98322.22;;;-7.57;100.00
55079;BME280;55187;49.496;6.010;2022-12-18T11:44:51;98316.66;;;-7.68;100.00
55079;BME280;55187;49.496;6.010;2022-12-18T11:50:26;98314.50;;;-7.33;100.00
55079;BME280;55187;49.496;6.010;2022-12-18T11:52:54;98315.41;;;-7.58;100.00
55079;BME280;55187;49.496;6.010;2022-12-18T11:55:31;98327.19;;;-7.52;100.00
55079;BME280;55187;49.496;6.010;2022-12-18T11:58:26;98320.66;;;-7.38;100.00
55079;BME280;55187;49.496;6.010;2022-12-18T12:01:27;98312.47;;;-7.47;100.00
55079;BME280;55187;49.496;6.010;2022-12-18T12:04:44;98297.31;;;-7.55;100.00
55079;BME280;55187;49.496;6.010;2022-12-18T12:07:30;98293.59;;;-7.70;100.00
55079;BME280;55187;49.496;6.010;2022-12-18T12:13:20;98299.00;;;-7.32;100.00
55079;BME280;55187;49.496;6.010;2022-12-18T12:16:07;98301.03;;;-7.40;100.00
55079;BME280;55187;49.496;6.010;2022-12-18T12:19:02;98295.31;;;-7.25;100.00
55079;BME280;55187;49.496;6.010;2022-12-18T12:21:47;98295.13;;;-7.20;100.00
55079;BME280;55187;49.496;6.010;2022-12-18T12:24:37;98287.25;;;-7.38;100.00
55079;BME280;55187;49.496;6.010;2022-12-18T12:27:20;98288.78;;;-7.11;100.00
55079;BME280;55187;49.496;6.010;2022-12-18T12:30:09;98285.75;;;-7.21;100.00
55079;BME280;55187;49.496;6.010;2022-12-18T12:32:53;98282.94;;;-7.15;100.00
55079;BME280;55187;49.496;6.010;2022-12-18T12:35:47;98267.16;;;-7.28;100.00
55079;BME280;55187;49.496;6.010;2022-12-18T12:38:28;98279.75;;;-7.00;100.00
55079;BME280;55187;49.496;6.010;2022-12-18T12:41:04;98271.53;;;-7.08;100.00
55079;BME280;55187;49.496;6.010;2022-12-18T12:43:38;98273.44;;;-7.13;100.00
55079;BME280;55187;49.496;6.010;2022-12-18T12:46:10;98282.09;;;-7.15;100.00
55079;BME280;55187;49.496;6.010;2022-12-18T12:48:49;98291.09;;;-7.04;100.00
55079;BME280;55187;49.496;6.010;2022-12-18T12:51:22;98289.63;;;-7.11;100.00
55079;BME280;55187;49.496;6.010;2022-12-18T12:53:49;98277.19;;;-7.00;100.00
55079;BME280;55187;49.496;6.010;2022-12-18T12:56:18;98267.75;;;-6.79;100.00
55079;BME280;55187;49.496;6.010;2022-12-18T12:58:59;98266.16;;;-6.81;100.00
55079;BME280;55187;49.496;6.010;2022-12-18T13:01:40;98254.56;;;-6.91;100.00
55079;BME280;55187;49.496;6.010;2022-12-18T13:04:21;98251.25;;;-6.73;100.00
55079;BME280;55187;49.496;6.010;2022-12-18T13:06:59;98252.59;;;-7.07;100.00
55079;BME280;55187;49.496;6.010;2022-12-18T13:09:31;98250.75;;;-7.25;100.00
55079;BME280;55187;49.496;6.010;2022-12-18T13:12:03;98244.06;;;-7.07;100.00
55079;BME280;55187;49.496;6.010;2022-12-18T13:14:42;98239.50;;;-7.23;100.00
55079;BME280;55187;49.496;6.010;2022-12-18T13:17:25;98231.25;;;-7.09;100.00
55079;BME280;55187;49.496;6.010;2022-12-18T13:20:07;98230.50;;;-6.90;100.00
55079;BME280;55187;49.496;6.010;2022-12-18T13:22:37;98237.06;;;-7.26;100.00
55079;BME280;55187;49.496;6.010;2022-12-18T13:25:27;98239.78;;;-7.29;100.00
55079;BME280;55187;49.496;6.010;2022-12-18T13:28:01;98238.25;;;-7.34;100.00
55079;BME280;55187;49.496;6.010;2022-12-18T13:30:44;98239.59;;;-7.24;100.00
55079;BME280;55187;49.496;6.010;2022-12-18T13:33:36;98241.22;;;-7.22;100.00
55079;BME280;55187;49.496;6.010;2022-12-18T13:36:27;98248.72;;;-7.39;100.00
55079;BME280;55187;49.496;6.010;2022-12-18T13:41:46;98243.81;;;-7.23;100.00
55079;BME280;55187;49.496;6.010;2022-12-18T13:44:31;98237.78;;;-7.44;100.00
55079;BME280;55187;49.496;6.010;2022-12-18T13:47:02;98242.16;;;-7.46;100.00
55079;BME280;55187;49.496;6.010;2022-12-18T13:49:43;98232.41;;;-7.60;100.00